sensor_id;sensor_type;location;lat;lon;timestamp;P1;durP1;ratioP1;P2;durP2;ratioP2
75441;SDS011;64019;48.312;14.226;2022-11-12T00:02:21;24.80;;;4.90;;
75441;SDS011;64019;48.312;14.226;2022-11-12T00:04:47;21.37;;;4.57;;
75441;SDS011;64019;48.312;14.226;2022-11-12T00:07:13;10.73;;;4.93;;
75441;SDS011;64019;48.312;14.226;2022-11-12T00:09:38;8.73;;;5.10;;
75441;SDS011;64019;48.312;14.226;2022-11-12T00:12:04;10.13;;;5.30;;
75441;SDS011;64019;48.312;14.226;2022-11-12T00:14:29;11.97;;;5.00;;
75441;SDS011;64019;48.312;14.226;2022-11-12T00:16:55;18.20;;;4.67;;
75441;SDS011;64019;48.312;14.226;2022-11-12T00:19:21;8.50;;;4.33;;
75441;SDS011;64019;48.312;14.226;2022-11-12T00:21:46;15.70;;;4.13;;
75441;SDS011;64019;48.312;14.226;2022-11-12T00:24:12;8.67;;;4.07;;
75441;SDS011;64019;48.312;14.226;2022-11-12T00:26:37;9.23;;;4.47;;
75441;SDS011;64019;48.312;14.226;2022-11-12T00:29:03;11.87;;;4.03;;
75441;SDS011;64019;48.312;14.226;2022-11-12T00:31:29;18.67;;;4.13;;
75441;SDS011;64019;48.312;14.226;2022-11-12T00:33:54;21.03;;;4.40;;
75441;SDS011;64019;48.312;14.226;2022-11-12T00:36:20;21.97;;;4.53;;
75441;SDS011;64019;48.312;14.226;2022-11-12T00:38:46;7.10;;;3.90;;
75441;SDS011;64019;48.312;14.226;2022-11-12T00:41:11;6.70;;;4.00;;
75441;SDS011;64019;48.312;14.226;2022-11-12T00:43:37;7.37;;;4.07;;
75441;SDS011;64019;48.312;14.226;2022-11-12T00:46:03;5.37;;;4.00;;
75441;SDS011;64019;48.312;14.226;2022-11-12T00:48:28;5.73;;;3.97;;
75441;SDS011;64019;48.312;14.226;2022-11-12T00:51:01;20.73;;;4.30;;
75441;SDS011;64019;48.312;14.226;2022-11-12T00:53:28;9.20;;;4.70;;
75441;SDS011;64019;48.312;14.226;2022-11-12T00:55:58;9.53;;;4.43;;
75441;SDS011;64019;48.312;14.226;2022-11-12T00:58:29;11.17;;;4.27;;
75441;SDS011;64019;48.312;14.226;2022-11-12T01:00:55;10.97;;;3.30;;
75441;SDS011;64019;48.312;14.226;2022-11-12T01:03:21;6.60;;;3.50;;
75441;SDS011;64019;48.312;14.226;2022-11-12T01:05:47;6.33;;;3.83;;
75441;SDS011;64019;48.312;14.226;2022-11-12T01:08:13;7.50;;;4.17;;
75441;SDS011;64019;48.312;14.226;2022-11-12T01:10:38;6.47;;;4.00;;
75441;SDS011;64019;48.312;14.226;2022-11-12T01:13:04;5.77;;;3.70;;
75441;SDS011;64019;48.312;14.226;2022-11-12T01:15:30;11.20;;;4.00;;
75441;SDS011;64019;48.312;14.226;2022-11-12T01:17:55;12.97;;;4.10;;
75441;SDS011;64019;48.312;14.226;2022-11-12T01:20:21;11.30;;;4.20;;
75441;SDS011;64019;48.312;14.226;2022-11-12T01:22:47;17.50;;;4.00;;
75441;SDS011;64019;48.312;14.226;2022-11-12T01:25:12;10.77;;;4.50;;
75441;SDS011;64019;48.312;14.226;2022-11-12T01:27:38;7.93;;;4.00;;
75441;SDS011;64019;48.312;14.226;2022-11-12T01:30:04;9.53;;;3.90;;
75441;SDS011;64019;48.312;14.226;2022-11-12T01:32:32;10.93;;;3.50;;
75441;SDS011;64019;48.312;14.226;2022-11-12T01:35:00;10.20;;;4.40;;
75441;SDS011;64019;48.312;14.226;2022-11-12T01:37:26;6.47;;;4.13;;
75441;SDS011;64019;48.312;14.226;2022-11-12T01:39:52;9.87;;;4.30;;
75441;SDS011;64019;48.312;14.226;2022-11-12T01:42:17;10.60;;;3.87;;
75441;SDS011;64019;48.312;14.226;2022-11-12T01:44:43;12.63;;;4.47;;
75441;SDS011;64019;48.312;14.226;2022-11-12T01:47:12;17.57;;;4.47;;
75441;SDS011;64019;48.312;14.226;2022-11-12T01:49:56;15.67;;;4.77;;
75441;SDS011;64019;48.312;14.226;2022-11-12T01:52:46;12.60;;;4.97;;
75441;SDS011;64019;48.312;14.226;2022-11-12T01:55:33;10.87;;;4.53;;
75441;SDS011;64019;48.312;14.226;2022-11-12T01:58:04;27.67;;;4.70;;
75441;SDS011;64019;48.312;14.226;2022-11-12T02:00:35;14.43;;;4.60;;
75441;SDS011;64019;48.312;14.226;2022-11-12T02:03:02;29.37;;;5.37;;
75441;SDS011;64019;48.312;14.226;2022-11-12T02:05:35;69.37;;;5.67;;
75441;SDS011;64019;48.312;14.226;2022-11-12T02:08:02;24.90;;;5.30;;
75441;SDS011;64019;48.312;14.226;2022-11-12T02:10:29;12.30;;;4.07;;
75441;SDS011;64019;48.312;14.226;2022-11-12T02:12:55;20.33;;;4.63;;
75441;SDS011;64019;48.312;14.226;2022-11-12T02:15:40;26.87;;;4.47;;
75441;SDS011;64019;48.312;14.226;2022-11-12T02:18:06;21.63;;;4.30;;
75441;SDS011;64019;48.312;14.226;2022-11-12T02:20:33;10.77;;;4.13;;
75441;SDS011;64019;48.312;14.226;2022-11-12T02:23:00;17.60;;;3.97;;
75441;SDS011;64019;48.312;14.226;2022-11-12T02:25:26;28.87;;;4.27;;
75441;SDS011;64019;48.312;14.226;2022-11-12T02:27:52;12.87;;;3.43;;
75441;SDS011;64019;48.312;14.226;2022-11-12T02:30:41;10.33;;;3.97;;
75441;SDS011;64019;48.312;14.226;2022-11-12T02:33:14;16.57;;;4.63;;
75441;SDS011;64019;48.312;14.226;2022-11-12T02:35:40;10.03;;;4.03;;
75441;SDS011;64019;48.312;14.226;2022-11-12T02:38:06;8.30;;;3.70;;
75441;SDS011;64019;48.312;14.226;2022-11-12T02:40:33;16.47;;;4.07;;
75441;SDS011;64019;48.312;14.226;2022-11-12T02:42:59;26.17;;;4.93;;
75441;SDS011;64019;48.312;14.226;2022-11-12T02:45:25;10.50;;;3.87;;
75441;SDS011;64019;48.312;14.226;2022-11-12T02:47:51;12.87;;;4.20;;
75441;SDS011;64019;48.312;14.226;2022-11-12T02:50:17;6.90;;;4.00;;
75441;SDS011;64019;48.312;14.226;2022-11-12T02:52:43;15.77;;;4.50;;
75441;SDS011;64019;48.312;14.226;2022-11-12T02:55:09;9.63;;;4.13;;
75441;SDS011;64019;48.312;14.226;2022-11-12T02:57:36;7.27;;;3.67;;
75441;SDS011;64019;48.312;14.226;2022-11-12T03:00:03;14.77;;;4.10;;
75441;SDS011;64019;48.312;14.226;2022-11-12T03:02:30;25.40;;;4.40;;
75441;SDS011;64019;48.312;14.226;2022-11-12T03:04:55;20.57;;;4.93;;
75441;SDS011;64019;48.312;14.226;2022-11-12T03:07:21;10.97;;;4.10;;
75441;SDS011;64019;48.312;14.226;2022-11-12T03:09:47;19.47;;;4.13;;
75441;SDS011;64019;48.312;14.226;2022-11-12T03:12:12;10.03;;;3.70;;
75441;SDS011;64019;48.312;14.226;2022-11-12T03:14:38;4.73;;;3.50;;
75441;SDS011;64019;48.312;14.226;2022-11-12T03:17:04;7.30;;;3.57;;
75441;SDS011;64019;48.312;14.226;2022-11-12T03:19:30;5.80;;;3.67;;
75441;SDS011;64019;48.312;14.226;2022-11-12T03:21:55;11.50;;;3.93;;
75441;SDS011;64019;48.312;14.226;2022-11-12T03:24:21;9.07;;;4.00;;
75441;SDS011;64019;48.312;14.226;2022-11-12T03:26:47;10.03;;;3.70;;
75441;SDS011;64019;48.312;14.226;2022-11-12T03:29:12;10.30;;;3.80;;
75441;SDS011;64019;48.312;14.226;2022-11-12T03:31:38;7.50;;;3.70;;
75441;SDS011;64019;48.312;14.226;2022-11-12T03:34:04;8.33;;;3.70;;
75441;SDS011;64019;48.312;14.226;2022-11-12T03:36:29;8.93;;;3.47;;
75441;SDS011;64019;48.312;14.226;2022-11-12T03:38:55;26.60;;;4.30;;
75441;SDS011;64019;48.312;14.226;2022-11-12T03:41:21;10.13;;;3.47;;
75441;SDS011;64019;48.312;14.226;2022-11-12T03:43:46;17.07;;;3.50;;
75441;SDS011;64019;48.312;14.226;2022-11-12T03:46:12;16.57;;;4.27;;
75441;SDS011;64019;48.312;14.226;2022-11-12T03:48:37;10.20;;;3.47;;
75441;SDS011;64019;48.312;14.226;2022-11-12T03:51:03;8.77;;;3.30;;
75441;SDS011;64019;48.312;14.226;2022-11-12T03:53:29;10.20;;;3.33;;
75441;SDS011;64019;48.312;14.226;2022-11-12T03:55:55;30.43;;;4.17;;
75441;SDS011;64019;48.312;14.226;2022-11-12T03:58:20;6.33;;;3.03;;
75441;SDS011;64019;48.312;14.226;2022-11-12T04:00:46;13.83;;;3.00;;
75441;SDS011;64019;48.312;14.226;2022-11-12T04:03:11;4.70;;;3.10;;
75441;SDS011;64019;48.312;14.226;2022-11-12T04:05:37;4.40;;;2.87;;
75441;SDS011;64019;48.312;14.226;2022-11-12T04:08:22;13.90;;;3.00;;
75441;SDS011;64019;48.312;14.226;2022-11-12T04:11:04;6.67;;;3.13;;
75441;SDS011;64019;48.312;14.226;2022-11-12T04:13:33;5.80;;;3.60;;
75441;SDS011;64019;48.312;14.226;2022-11-12T04:16:18;10.37;;;3.67;;
75441;SDS011;64019;48.312;14.226;2022-11-12T04:19:03;5.60;;;3.23;;
75441;SDS011;64019;48.312;14.226;2022-11-12T04:21:52;7.53;;;3.50;;
75441;SDS011;64019;48.312;14.226;2022-11-12T04:29:47;8.77;;;2.83;;
75441;SDS011;64019;48.312;14.226;2022-11-12T04:32:36;5.23;;;2.80;;
75441;SDS011;64019;48.312;14.226;2022-11-12T04:35:03;10.83;;;3.37;;
75441;SDS011;64019;48.312;14.226;2022-11-12T04:37:31;6.10;;;3.23;;
75441;SDS011;64019;48.312;14.226;2022-11-12T04:42:59;8.93;;;3.67;;
75441;SDS011;64019;48.312;14.226;2022-11-12T04:45:44;6.47;;;3.30;;
75441;SDS011;64019;48.312;14.226;2022-11-12T04:48:11;22.90;;;3.37;;
75441;SDS011;64019;48.312;14.226;2022-11-12T04:50:37;15.80;;;3.40;;
75441;SDS011;64019;48.312;14.226;2022-11-12T04:53:03;14.87;;;3.50;;
75441;SDS011;64019;48.312;14.226;2022-11-12T04:55:29;8.03;;;3.23;;
75441;SDS011;64019;48.312;14.226;2022-11-12T04:57:55;9.00;;;3.67;;
75441;SDS011;64019;48.312;14.226;2022-11-12T05:00:21;5.70;;;2.97;;
75441;SDS011;64019;48.312;14.226;2022-11-12T05:02:48;5.27;;;3.20;;
75441;SDS011;64019;48.312;14.226;2022-11-12T05:05:14;9.27;;;3.40;;
75441;SDS011;64019;48.312;14.226;2022-11-12T05:07:40;17.37;;;3.37;;
75441;SDS011;64019;48.312;14.226;2022-11-12T05:10:05;6.07;;;3.30;;
75441;SDS011;64019;48.312;14.226;2022-11-12T05:12:32;5.70;;;3.60;;
75441;SDS011;64019;48.312;14.226;2022-11-12T05:14:57;16.93;;;4.07;;
75441;SDS011;64019;48.312;14.226;2022-11-12T05:17:23;22.13;;;3.67;;
75441;SDS011;64019;48.312;14.226;2022-11-12T05:19:49;7.17;;;3.10;;
75441;SDS011;64019;48.312;14.226;2022-11-12T05:22:14;6.57;;;3.17;;
75441;SDS011;64019;48.312;14.226;2022-11-12T05:24:41;5.43;;;3.00;;
75441;SDS011;64019;48.312;14.226;2022-11-12T05:29:36;8.47;;;3.60;;
75441;SDS011;64019;48.312;14.226;2022-11-12T05:32:02;7.83;;;3.27;;
75441;SDS011;64019;48.312;14.226;2022-11-12T05:34:29;23.83;;;3.70;;
75441;SDS011;64019;48.312;14.226;2022-11-12T05:36:55;23.17;;;3.63;;
75441;SDS011;64019;48.312;14.226;2022-11-12T05:39:21;4.23;;;3.00;;
75441;SDS011;64019;48.312;14.226;2022-11-12T05:41:47;18.57;;;3.47;;
75441;SDS011;64019;48.312;14.226;2022-11-12T05:44:13;7.53;;;3.33;;
75441;SDS011;64019;48.312;14.226;2022-11-12T05:46:38;7.20;;;3.43;;
75441;SDS011;64019;48.312;14.226;2022-11-12T05:49:04;7.40;;;3.83;;
75441;SDS011;64019;48.312;14.226;2022-11-12T05:51:30;6.20;;;4.23;;
75441;SDS011;64019;48.312;14.226;2022-11-12T05:53:55;7.97;;;4.10;;
75441;SDS011;64019;48.312;14.226;2022-11-12T05:56:21;11.73;;;5.13;;
75441;SDS011;64019;48.312;14.226;2022-11-12T05:58:47;13.13;;;5.47;;
75441;SDS011;64019;48.312;14.226;2022-11-12T06:01:12;11.70;;;5.57;;
75441;SDS011;64019;48.312;14.226;2022-11-12T06:03:38;9.77;;;5.70;;
75441;SDS011;64019;48.312;14.226;2022-11-12T06:06:04;10.30;;;5.47;;
75441;SDS011;64019;48.312;14.226;2022-11-12T06:08:30;17.43;;;7.33;;
75441;SDS011;64019;48.312;14.226;2022-11-12T06:10:55;11.83;;;5.30;;
75441;SDS011;64019;48.312;14.226;2022-11-12T06:13:22;24.70;;;5.40;;
75441;SDS011;64019;48.312;14.226;2022-11-12T06:15:49;18.20;;;5.47;;
75441;SDS011;64019;48.312;14.226;2022-11-12T06:18:15;18.17;;;6.73;;
75441;SDS011;64019;48.312;14.226;2022-11-12T06:20:41;17.13;;;6.37;;
75441;SDS011;64019;48.312;14.226;2022-11-12T06:23:06;16.90;;;6.77;;
75441;SDS011;64019;48.312;14.226;2022-11-12T06:25:32;16.63;;;6.90;;
75441;SDS011;64019;48.312;14.226;2022-11-12T06:27:58;17.07;;;6.93;;
75441;SDS011;64019;48.312;14.226;2022-11-12T06:30:23;24.87;;;7.90;;
75441;SDS011;64019;48.312;14.226;2022-11-12T06:32:49;14.33;;;7.10;;
75441;SDS011;64019;48.312;14.226;2022-11-12T06:35:16;21.60;;;8.50;;
75441;SDS011;64019;48.312;14.226;2022-11-12T06:37:45;18.80;;;8.37;;
75441;SDS011;64019;48.312;14.226;2022-11-12T06:40:12;19.43;;;9.13;;
75441;SDS011;64019;48.312;14.226;2022-11-12T06:42:37;19.10;;;8.97;;
75441;SDS011;64019;48.312;14.226;2022-11-12T06:45:03;25.47;;;9.73;;
75441;SDS011;64019;48.312;14.226;2022-11-12T06:47:29;23.13;;;9.63;;
75441;SDS011;64019;48.312;14.226;2022-11-12T06:49:55;23.33;;;9.30;;
75441;SDS011;64019;48.312;14.226;2022-11-12T06:52:21;37.93;;;8.77;;
75441;SDS011;64019;48.312;14.226;2022-11-12T06:54:46;21.17;;;8.80;;
75441;SDS011;64019;48.312;14.226;2022-11-12T06:57:12;25.50;;;9.23;;
75441;SDS011;64019;48.312;14.226;2022-11-12T06:59:37;20.90;;;9.03;;
75441;SDS011;64019;48.312;14.226;2022-11-12T07:02:03;29.40;;;10.40;;
75441;SDS011;64019;48.312;14.226;2022-11-12T07:04:29;22.17;;;10.07;;
75441;SDS011;64019;48.312;14.226;2022-11-12T07:06:55;20.00;;;10.07;;
75441;SDS011;64019;48.312;14.226;2022-11-12T07:09:21;24.27;;;10.27;;
75441;SDS011;64019;48.312;14.226;2022-11-12T07:11:46;25.93;;;10.23;;
75441;SDS011;64019;48.312;14.226;2022-11-12T07:14:12;24.63;;;11.17;;
75441;SDS011;64019;48.312;14.226;2022-11-12T07:16:38;22.10;;;10.40;;
75441;SDS011;64019;48.312;14.226;2022-11-12T07:19:04;20.77;;;10.47;;
75441;SDS011;64019;48.312;14.226;2022-11-12T07:21:30;22.13;;;10.60;;
75441;SDS011;64019;48.312;14.226;2022-11-12T07:23:55;29.37;;;11.23;;
75441;SDS011;64019;48.312;14.226;2022-11-12T07:26:22;27.53;;;10.70;;
75441;SDS011;64019;48.312;14.226;2022-11-12T07:28:50;27.63;;;11.30;;
75441;SDS011;64019;48.312;14.226;2022-11-12T07:31:17;21.33;;;10.30;;
75441;SDS011;64019;48.312;14.226;2022-11-12T07:33:44;31.03;;;11.27;;
75441;SDS011;64019;48.312;14.226;2022-11-12T07:36:13;29.70;;;11.83;;
75441;SDS011;64019;48.312;14.226;2022-11-12T07:38:41;27.87;;;11.13;;
75441;SDS011;64019;48.312;14.226;2022-11-12T07:41:09;31.43;;;11.23;;
75441;SDS011;64019;48.312;14.226;2022-11-12T07:43:35;36.43;;;13.33;;
75441;SDS011;64019;48.312;14.226;2022-11-12T07:46:03;30.77;;;13.50;;
75441;SDS011;64019;48.312;14.226;2022-11-12T07:48:35;33.73;;;14.47;;
75441;SDS011;64019;48.312;14.226;2022-11-12T07:51:02;36.87;;;15.43;;
75441;SDS011;64019;48.312;14.226;2022-11-12T07:53:29;36.07;;;14.87;;
75441;SDS011;64019;48.312;14.226;2022-11-12T07:55:56;35.03;;;15.63;;
75441;SDS011;64019;48.312;14.226;2022-11-12T07:58:23;43.23;;;16.57;;
75441;SDS011;64019;48.312;14.226;2022-11-12T08:00:50;45.07;;;17.10;;
75441;SDS011;64019;48.312;14.226;2022-11-12T08:03:16;48.47;;;18.43;;
75441;SDS011;64019;48.312;14.226;2022-11-12T08:05:43;48.27;;;17.47;;
75441;SDS011;64019;48.312;14.226;2022-11-12T08:08:08;44.10;;;18.03;;
75441;SDS011;64019;48.312;14.226;2022-11-12T08:10:35;46.13;;;17.23;;
75441;SDS011;64019;48.312;14.226;2022-11-12T08:13:01;54.00;;;17.00;;
75441;SDS011;64019;48.312;14.226;2022-11-12T08:15:26;45.63;;;17.23;;
75441;SDS011;64019;48.312;14.226;2022-11-12T08:17:52;39.40;;;17.47;;
75441;SDS011;64019;48.312;14.226;2022-11-12T08:20:18;44.20;;;18.50;;
75441;SDS011;64019;48.312;14.226;2022-11-12T08:22:43;48.27;;;19.53;;
75441;SDS011;64019;48.312;14.226;2022-11-12T08:25:09;46.83;;;19.20;;
75441;SDS011;64019;48.312;14.226;2022-11-12T08:27:34;54.20;;;19.83;;
75441;SDS011;64019;48.312;14.226;2022-11-12T08:30:01;47.00;;;19.40;;
75441;SDS011;64019;48.312;14.226;2022-11-12T08:32:27;53.50;;;21.33;;
75441;SDS011;64019;48.312;14.226;2022-11-12T08:34:52;47.97;;;19.73;;
75441;SDS011;64019;48.312;14.226;2022-11-12T08:37:18;51.53;;;19.97;;
75441;SDS011;64019;48.312;14.226;2022-11-12T08:39:44;47.53;;;19.30;;
75441;SDS011;64019;48.312;14.226;2022-11-12T08:42:09;47.10;;;18.93;;
75441;SDS011;64019;48.312;14.226;2022-11-12T08:44:35;55.17;;;20.97;;
75441;SDS011;64019;48.312;14.226;2022-11-12T08:47:00;39.63;;;16.73;;
75441;SDS011;64019;48.312;14.226;2022-11-12T08:49:26;50.83;;;19.33;;
75441;SDS011;64019;48.312;14.226;2022-11-12T08:51:53;60.37;;;20.27;;
75441;SDS011;64019;48.312;14.226;2022-11-12T08:54:19;40.13;;;16.03;;
75441;SDS011;64019;48.312;14.226;2022-11-12T08:56:45;32.07;;;14.47;;
75441;SDS011;64019;48.312;14.226;2022-11-12T08:59:10;30.70;;;13.70;;
75441;SDS011;64019;48.312;14.226;2022-11-12T09:01:36;31.60;;;14.70;;
75441;SDS011;64019;48.312;14.226;2022-11-12T09:04:02;25.83;;;12.30;;
75441;SDS011;64019;48.312;14.226;2022-11-12T09:06:27;30.57;;;12.97;;
75441;SDS011;64019;48.312;14.226;2022-11-12T09:08:53;25.80;;;11.87;;
75441;SDS011;64019;48.312;14.226;2022-11-12T09:11:19;22.97;;;11.20;;
75441;SDS011;64019;48.312;14.226;2022-11-12T09:13:44;20.40;;;9.17;;
75441;SDS011;64019;48.312;14.226;2022-11-12T09:16:10;19.07;;;8.87;;
75441;SDS011;64019;48.312;14.226;2022-11-12T09:18:36;22.17;;;9.57;;
75441;SDS011;64019;48.312;14.226;2022-11-12T09:21:05;16.57;;;8.90;;
75441;SDS011;64019;48.312;14.226;2022-11-12T09:23:34;17.20;;;8.90;;
75441;SDS011;64019;48.312;14.226;2022-11-12T09:26:01;21.77;;;9.47;;
75441;SDS011;64019;48.312;14.226;2022-11-12T09:28:27;18.27;;;8.97;;
75441;SDS011;64019;48.312;14.226;2022-11-12T09:30:53;18.93;;;8.47;;
75441;SDS011;64019;48.312;14.226;2022-11-12T09:33:23;18.13;;;9.27;;
75441;SDS011;64019;48.312;14.226;2022-11-12T09:35:51;20.30;;;9.80;;
75441;SDS011;64019;48.312;14.226;2022-11-12T09:38:18;19.27;;;9.17;;
75441;SDS011;64019;48.312;14.226;2022-11-12T09:40:54;19.90;;;10.57;;
75441;SDS011;64019;48.312;14.226;2022-11-12T09:43:50;20.73;;;10.37;;
75441;SDS011;64019;48.312;14.226;2022-11-12T09:48:51;22.67;;;10.37;;
75441;SDS011;64019;48.312;14.226;2022-11-12T09:51:25;17.07;;;9.20;;
75441;SDS011;64019;48.312;14.226;2022-11-12T09:53:55;20.00;;;10.13;;
75441;SDS011;64019;48.312;14.226;2022-11-12T09:56:23;19.37;;;10.40;;
75441;SDS011;64019;48.312;14.226;2022-11-12T09:58:49;20.17;;;10.00;;
75441;SDS011;64019;48.312;14.226;2022-11-12T10:12:45;17.23;;;9.27;;
75441;SDS011;64019;48.312;14.226;2022-11-12T10:21:40;19.17;;;9.90;;
75441;SDS011;64019;48.312;14.226;2022-11-12T10:24:10;18.90;;;10.60;;
75441;SDS011;64019;48.312;14.226;2022-11-12T10:26:37;16.80;;;9.33;;
75441;SDS011;64019;48.312;14.226;2022-11-12T10:31:34;20.50;;;9.57;;
75441;SDS011;64019;48.312;14.226;2022-11-12T10:36:39;18.67;;;10.00;;
75441;SDS011;64019;48.312;14.226;2022-11-12T10:39:09;16.93;;;9.10;;
75441;SDS011;64019;48.312;14.226;2022-11-12T10:41:34;17.80;;;10.33;;
75441;SDS011;64019;48.312;14.226;2022-11-12T10:44:01;15.87;;;8.60;;
75441;SDS011;64019;48.312;14.226;2022-11-12T10:46:29;19.33;;;9.27;;
75441;SDS011;64019;48.312;14.226;2022-11-12T10:49:00;18.97;;;9.53;;
75441;SDS011;64019;48.312;14.226;2022-11-12T10:51:33;14.23;;;8.40;;
75441;SDS011;64019;48.312;14.226;2022-11-12T10:56:51;16.53;;;9.13;;
75441;SDS011;64019;48.312;14.226;2022-11-12T10:59:18;16.33;;;8.20;;
75441;SDS011;64019;48.312;14.226;2022-11-12T11:01:45;14.33;;;7.77;;
75441;SDS011;64019;48.312;14.226;2022-11-12T11:04:36;14.87;;;8.50;;
75441;SDS011;64019;48.312;14.226;2022-11-12T11:09:54;15.67;;;9.30;;
75441;SDS011;64019;48.312;14.226;2022-11-12T11:12:30;19.70;;;8.27;;
75441;SDS011;64019;48.312;14.226;2022-11-12T11:17:35;13.67;;;8.90;;
75441;SDS011;64019;48.312;14.226;2022-11-12T11:20:02;16.80;;;9.37;;
75441;SDS011;64019;48.312;14.226;2022-11-12T11:22:41;15.27;;;9.33;;
75441;SDS011;64019;48.312;14.226;2022-11-12T11:25:25;18.43;;;9.63;;
75441;SDS011;64019;48.312;14.226;2022-11-12T11:30:45;23.63;;;9.57;;
75441;SDS011;64019;48.312;14.226;2022-11-12T11:36:03;18.53;;;9.97;;
75441;SDS011;64019;48.312;14.226;2022-11-12T11:38:42;22.30;;;9.63;;
75441;SDS011;64019;48.312;14.226;2022-11-12T12:00:47;23.03;;;10.90;;
75441;SDS011;64019;48.312;14.226;2022-11-12T12:03:19;21.63;;;10.97;;
75441;SDS011;64019;48.312;14.226;2022-11-12T12:19:58;13.33;;;8.47;;
75441;SDS011;64019;48.312;14.226;2022-11-12T12:22:37;16.97;;;9.13;;
75441;SDS011;64019;48.312;14.226;2022-11-12T12:25:17;16.33;;;8.43;;
75441;SDS011;64019;48.312;14.226;2022-11-12T12:27:59;13.17;;;8.20;;
75441;SDS011;64019;48.312;14.226;2022-11-12T12:30:33;15.90;;;8.37;;
75441;SDS011;64019;48.312;14.226;2022-11-12T12:33:18;14.03;;;8.40;;
75441;SDS011;64019;48.312;14.226;2022-11-12T12:36:02;13.13;;;7.60;;
75441;SDS011;64019;48.312;14.226;2022-11-12T12:38:56;12.13;;;7.93;;
75441;SDS011;64019;48.312;14.226;2022-11-12T12:44:29;12.87;;;7.90;;
75441;SDS011;64019;48.312;14.226;2022-11-12T12:47:20;15.43;;;8.17;;
75441;SDS011;64019;48.312;14.226;2022-11-12T12:49:46;15.40;;;8.43;;
75441;SDS011;64019;48.312;14.226;2022-11-12T12:52:14;12.20;;;7.97;;
75441;SDS011;64019;48.312;14.226;2022-11-12T13:02:49;28.50;;;14.33;;
75441;SDS011;64019;48.312;14.226;2022-11-12T13:05:21;33.50;;;15.00;;
75441;SDS011;64019;48.312;14.226;2022-11-12T13:07:52;45.13;;;18.03;;
75441;SDS011;64019;48.312;14.226;2022-11-12T13:23:48;38.50;;;18.00;;
75441;SDS011;64019;48.312;14.226;2022-11-12T13:26:44;43.90;;;18.93;;
75441;SDS011;64019;48.312;14.226;2022-11-12T13:30:01;41.40;;;19.20;;
75441;SDS011;64019;48.312;14.226;2022-11-12T13:37:41;46.17;;;19.50;;
75441;SDS011;64019;48.312;14.226;2022-11-12T13:40:10;44.73;;;19.13;;
75441;SDS011;64019;48.312;14.226;2022-11-12T13:42:39;52.30;;;19.57;;
75441;SDS011;64019;48.312;14.226;2022-11-12T13:45:14;47.80;;;20.30;;
75441;SDS011;64019;48.312;14.226;2022-11-12T13:47:41;43.57;;;19.47;;
75441;SDS011;64019;48.312;14.226;2022-11-12T13:50:09;49.07;;;21.40;;
75441;SDS011;64019;48.312;14.226;2022-11-12T13:52:40;49.33;;;20.30;;
75441;SDS011;64019;48.312;14.226;2022-11-12T13:55:06;49.17;;;21.30;;
75441;SDS011;64019;48.312;14.226;2022-11-12T13:57:39;46.17;;;20.40;;
75441;SDS011;64019;48.312;14.226;2022-11-12T14:00:19;54.97;;;22.13;;
75441;SDS011;64019;48.312;14.226;2022-11-12T14:02:51;50.10;;;19.53;;
75441;SDS011;64019;48.312;14.226;2022-11-12T14:05:20;49.20;;;21.77;;
75441;SDS011;64019;48.312;14.226;2022-11-12T14:10:32;45.73;;;20.40;;
75441;SDS011;64019;48.312;14.226;2022-11-12T14:13:13;56.80;;;22.00;;
75441;SDS011;64019;48.312;14.226;2022-11-12T14:21:17;73.27;;;24.40;;
75441;SDS011;64019;48.312;14.226;2022-11-12T14:23:44;60.70;;;23.37;;
75441;SDS011;64019;48.312;14.226;2022-11-12T14:26:12;73.97;;;24.47;;
75441;SDS011;64019;48.312;14.226;2022-11-12T14:28:38;66.83;;;25.07;;
75441;SDS011;64019;48.312;14.226;2022-11-12T14:31:12;71.63;;;25.80;;
75441;SDS011;64019;48.312;14.226;2022-11-12T14:33:38;64.43;;;24.93;;
75441;SDS011;64019;48.312;14.226;2022-11-12T14:36:13;61.50;;;24.47;;
75441;SDS011;64019;48.312;14.226;2022-11-12T14:38:43;64.20;;;24.43;;
75441;SDS011;64019;48.312;14.226;2022-11-12T14:43:45;75.53;;;26.57;;
75441;SDS011;64019;48.312;14.226;2022-11-12T14:46:55;73.33;;;27.27;;
75441;SDS011;64019;48.312;14.226;2022-11-12T14:52:07;81.03;;;28.40;;
75441;SDS011;64019;48.312;14.226;2022-11-12T14:54:48;73.23;;;28.13;;
75441;SDS011;64019;48.312;14.226;2022-11-12T14:57:26;71.57;;;27.23;;
75441;SDS011;64019;48.312;14.226;2022-11-12T14:59:54;72.07;;;26.30;;
75441;SDS011;64019;48.312;14.226;2022-11-12T15:02:24;68.87;;;27.07;;
75441;SDS011;64019;48.312;14.226;2022-11-12T15:05:16;82.93;;;26.87;;
75441;SDS011;64019;48.312;14.226;2022-11-12T15:08:03;81.07;;;27.67;;
75441;SDS011;64019;48.312;14.226;2022-11-12T15:15:34;78.40;;;26.50;;
75441;SDS011;64019;48.312;14.226;2022-11-12T15:18:03;61.47;;;25.57;;
75441;SDS011;64019;48.312;14.226;2022-11-12T15:20:31;67.60;;;25.33;;
75441;SDS011;64019;48.312;14.226;2022-11-12T15:22:57;69.47;;;27.37;;
75441;SDS011;64019;48.312;14.226;2022-11-12T15:25:24;72.17;;;27.27;;
75441;SDS011;64019;48.312;14.226;2022-11-12T15:27:54;61.73;;;25.23;;
75441;SDS011;64019;48.312;14.226;2022-11-12T15:35:37;64.93;;;23.20;;
75441;SDS011;64019;48.312;14.226;2022-11-12T15:41:00;55.27;;;23.40;;
75441;SDS011;64019;48.312;14.226;2022-11-12T15:43:27;62.37;;;25.63;;
75441;SDS011;64019;48.312;14.226;2022-11-12T15:45:55;59.53;;;23.30;;
75441;SDS011;64019;48.312;14.226;2022-11-12T15:48:21;63.17;;;23.83;;
75441;SDS011;64019;48.312;14.226;2022-11-12T15:50:46;60.37;;;23.03;;
75441;SDS011;64019;48.312;14.226;2022-11-12T15:53:13;58.07;;;23.03;;
75441;SDS011;64019;48.312;14.226;2022-11-12T15:55:39;57.70;;;22.40;;
75441;SDS011;64019;48.312;14.226;2022-11-12T15:58:06;59.17;;;22.93;;
75441;SDS011;64019;48.312;14.226;2022-11-12T16:00:51;57.93;;;23.80;;
75441;SDS011;64019;48.312;14.226;2022-11-12T16:03:18;56.53;;;22.70;;
75441;SDS011;64019;48.312;14.226;2022-11-12T16:05:45;64.17;;;23.67;;
75441;SDS011;64019;48.312;14.226;2022-11-12T16:08:11;58.10;;;22.93;;
75441;SDS011;64019;48.312;14.226;2022-11-12T16:10:37;56.80;;;22.53;;
75441;SDS011;64019;48.312;14.226;2022-11-12T16:13:05;54.43;;;23.47;;
75441;SDS011;64019;48.312;14.226;2022-11-12T16:15:35;54.87;;;22.10;;
75441;SDS011;64019;48.312;14.226;2022-11-12T16:18:01;57.27;;;22.80;;
75441;SDS011;64019;48.312;14.226;2022-11-12T16:20:28;57.70;;;22.70;;
75441;SDS011;64019;48.312;14.226;2022-11-12T16:22:56;59.80;;;23.10;;
75441;SDS011;64019;48.312;14.226;2022-11-12T16:25:22;64.87;;;24.60;;
75441;SDS011;64019;48.312;14.226;2022-11-12T16:27:52;57.37;;;24.17;;
75441;SDS011;64019;48.312;14.226;2022-11-12T16:30:22;53.37;;;22.90;;
75441;SDS011;64019;48.312;14.226;2022-11-12T16:32:55;49.00;;;20.63;;
75441;SDS011;64019;48.312;14.226;2022-11-12T16:35:22;51.97;;;20.50;;
75441;SDS011;64019;48.312;14.226;2022-11-12T16:37:48;60.33;;;24.53;;
75441;SDS011;64019;48.312;14.226;2022-11-12T16:40:18;57.57;;;24.03;;
75441;SDS011;64019;48.312;14.226;2022-11-12T16:42:48;59.07;;;24.73;;
75441;SDS011;64019;48.312;14.226;2022-11-12T16:45:15;65.67;;;24.07;;
75441;SDS011;64019;48.312;14.226;2022-11-12T16:47:46;72.87;;;24.37;;
75441;SDS011;64019;48.312;14.226;2022-11-12T16:50:14;59.40;;;23.83;;